sensor_id;sensor_type;location;lat;lon;timestamp;P1;durP1;ratioP1;P2;durP2;ratioP2
73421;SDS011;61637;47.760;-122.022;2023-03-01T00:00:02;14.8;;;13.6;;
73421;SDS011;61637;47.760;-122.022;2023-03-01T00:02:01;13.6;;;12.5;;
73421;SDS011;61637;47.760;-122.022;2023-03-01T00:04:01;13.7;;;12.6;;
73421;SDS011;61637;47.760;-122.022;2023-03-01T00:06:02;14.4;;;13.1;;
73421;SDS011;61637;47.760;-122.022;2023-03-01T00:08:01;14.0;;;12.8;;
73421;SDS011;61637;47.760;-122.022;2023-03-01T00:10:01;14.0;;;12.8;;
73421;SDS011;61637;47.760;-122.022;2023-03-01T00:12:02;14.2;;;13.0;;
73421;SDS011;61637;47.760;-122.022;2023-03-01T00:14:03;14.7;;;13.5;;
73421;SDS011;61637;47.760;-122.022;2023-03-01T00:16:02;14.3;;;13.1;;
73421;SDS011;61637;47.760;-122.022;2023-03-01T00:18:01;14.6;;;13.4;;
73421;SDS011;61637;47.760;-122.022;2023-03-01T00:20:02;14.5;;;13.3;;
73421;SDS011;61637;47.760;-122.022;2023-03-01T00:22:01;13.2;;;12.1;;
73421;SDS011;61637;47.760;-122.022;2023-03-01T00:24:02;15.1;;;13.9;;
73421;SDS011;61637;47.760;-122.022;2023-03-01T00:26:02;13.5;;;12.4;;
73421;SDS011;61637;47.760;-122.022;2023-03-01T00:28:01;14.1;;;12.9;;
73421;SDS011;61637;47.760;-122.022;2023-03-01T00:30:01;15.4;;;14.1;;
73421;SDS011;61637;47.760;-122.022;2023-03-01T00:32:01;14.1;;;12.9;;
73421;SDS011;61637;47.760;-122.022;2023-03-01T00:34:03;14.7;;;13.5;;
73421;SDS011;61637;47.760;-122.022;2023-03-01T00:36:02;16.1;;;14.8;;
73421;SDS011;61637;47.760;-122.022;2023-03-01T00:38:02;15.3;;;14.0;;
73421;SDS011;61637;47.760;-122.022;2023-03-01T00:40:01;14.8;;;13.6;;
73421;SDS011;61637;47.760;-122.022;2023-03-01T00:42:01;15.3;;;14.1;;
73421;SDS011;61637;47.760;-122.022;2023-03-01T00:44:02;14.2;;;13.0;;
73421;SDS011;61637;47.760;-122.022;2023-03-01T00:46:01;15.2;;;13.9;;
73421;SDS011;61637;47.760;-122.022;2023-03-01T00:48:02;15.4;;;14.1;;
73421;SDS011;61637;47.760;-122.022;2023-03-01T00:50:01;15.1;;;13.9;;
73421;SDS011;61637;47.760;-122.022;2023-03-01T00:52:02;14.3;;;13.1;;
73421;SDS011;61637;47.760;-122.022;2023-03-01T00:54:02;14.1;;;12.9;;
73421;SDS011;61637;47.760;-122.022;2023-03-01T00:56:02;15.6;;;14.4;;
73421;SDS011;61637;47.760;-122.022;2023-03-01T00:58:01;15.7;;;14.4;;
73421;SDS011;61637;47.760;-122.022;2023-03-01T01:00:02;15.1;;;13.9;;
73421;SDS011;61637;47.760;-122.022;2023-03-01T01:02:01;14.3;;;13.1;;
73421;SDS011;61637;47.760;-122.022;2023-03-01T01:04:04;14.9;;;13.7;;
73421;SDS011;61637;47.760;-122.022;2023-03-01T01:06:01;13.6;;;12.5;;
73421;SDS011;61637;47.760;-122.022;2023-03-01T01:08:01;15.4;;;14.2;;
73421;SDS011;61637;47.760;-122.022;2023-03-01T01:10:02;14.4;;;13.2;;
73421;SDS011;61637;47.760;-122.022;2023-03-01T01:12:02;15.9;;;14.6;;
73421;SDS011;61637;47.760;-122.022;2023-03-01T01:14:01;14.9;;;13.7;;
73421;SDS011;61637;47.760;-122.022;2023-03-01T01:16:02;15.0;;;13.7;;
73421;SDS011;61637;47.760;-122.022;2023-03-01T01:18:02;14.2;;;13.0;;
73421;SDS011;61637;47.760;-122.022;2023-03-01T01:20:01;15.9;;;14.6;;
73421;SDS011;61637;47.760;-122.022;2023-03-01T01:22:01;15.6;;;14.3;;
73421;SDS011;61637;47.760;-122.022;2023-03-01T01:24:02;16.4;;;15.0;;
73421;SDS011;61637;47.760;-122.022;2023-03-01T01:26:05;15.1;;;13.8;;
73421;SDS011;61637;47.760;-122.022;2023-03-01T01:28:01;15.6;;;14.3;;
73421;SDS011;61637;47.760;-122.022;2023-03-01T01:30:01;16.2;;;14.8;;
73421;SDS011;61637;47.760;-122.022;2023-03-01T01:32:01;16.1;;;14.8;;
73421;SDS011;61637;47.760;-122.022;2023-03-01T01:34:03;16.1;;;14.7;;
73421;SDS011;61637;47.760;-122.022;2023-03-01T01:36:02;16.3;;;14.9;;
73421;SDS011;61637;47.760;-122.022;2023-03-01T01:38:01;16.6;;;15.2;;
73421;SDS011;61637;47.760;-122.022;2023-03-01T01:40:01;16.2;;;14.9;;
73421;SDS011;61637;47.760;-122.022;2023-03-01T01:42:01;15.8;;;14.5;;
73421;SDS011;61637;47.760;-122.022;2023-03-01T01:44:12;15.0;;;13.8;;
73421;SDS011;61637;47.760;-122.022;2023-03-01T01:46:04;15.4;;;14.1;;
73421;SDS011;61637;47.760;-122.022;2023-03-01T01:48:04;16.5;;;15.2;;
73421;SDS011;61637;47.760;-122.022;2023-03-01T01:50:01;15.5;;;14.2;;
73421;SDS011;61637;47.760;-122.022;2023-03-01T01:52:08;16.3;;;15.0;;
73421;SDS011;61637;47.760;-122.022;2023-03-01T01:54:01;15.6;;;14.3;;
73421;SDS011;61637;47.760;-122.022;2023-03-01T01:56:01;15.6;;;14.3;;
73421;SDS011;61637;47.760;-122.022;2023-03-01T01:58:04;16.2;;;14.9;;
73421;SDS011;61637;47.760;-122.022;2023-03-01T02:00:06;16.4;;;15.1;;
73421;SDS011;61637;47.760;-122.022;2023-03-01T02:02:04;15.7;;;14.4;;
73421;SDS011;61637;47.760;-122.022;2023-03-01T02:04:01;15.7;;;14.4;;
73421;SDS011;61637;47.760;-122.022;2023-03-01T02:06:04;16.2;;;14.8;;
73421;SDS011;61637;47.760;-122.022;2023-03-01T02:08:01;17.4;;;15.9;;
73421;SDS011;61637;47.760;-122.022;2023-03-01T02:10:02;17.3;;;15.9;;
73421;SDS011;61637;47.760;-122.022;2023-03-01T02:12:02;16.7;;;15.3;;
73421;SDS011;61637;47.760;-122.022;2023-03-01T02:14:01;17.9;;;16.3;;
73421;SDS011;61637;47.760;-122.022;2023-03-01T02:16:04;16.5;;;15.2;;
73421;SDS011;61637;47.760;-122.022;2023-03-01T02:18:02;16.5;;;15.2;;
73421;SDS011;61637;47.760;-122.022;2023-03-01T02:20:10;17.9;;;16.4;;
73421;SDS011;61637;47.760;-122.022;2023-03-01T02:22:07;17.5;;;15.9;;
73421;SDS011;61637;47.760;-122.022;2023-03-01T02:24:13;16.1;;;14.8;;
73421;SDS011;61637;47.760;-122.022;2023-03-01T02:26:04;18.0;;;16.5;;
73421;SDS011;61637;47.760;-122.022;2023-03-01T02:28:10;17.4;;;15.9;;
73421;SDS011;61637;47.760;-122.022;2023-03-01T02:30:02;17.4;;;15.9;;
73421;SDS011;61637;47.760;-122.022;2023-03-01T02:32:02;16.7;;;15.3;;
73421;SDS011;61637;47.760;-122.022;2023-03-01T02:34:02;17.3;;;15.8;;
73421;SDS011;61637;47.760;-122.022;2023-03-01T02:36:06;17.3;;;15.9;;
73421;SDS011;61637;47.760;-122.022;2023-03-01T02:38:02;17.7;;;16.1;;
73421;SDS011;61637;47.760;-122.022;2023-03-01T02:40:06;18.0;;;16.5;;
73421;SDS011;61637;47.760;-122.022;2023-03-01T02:42:02;17.0;;;15.6;;
73421;SDS011;61637;47.760;-122.022;2023-03-01T02:44:02;17.8;;;16.3;;
73421;SDS011;61637;47.760;-122.022;2023-03-01T02:46:06;17.7;;;16.2;;
73421;SDS011;61637;47.760;-122.022;2023-03-01T02:48:01;18.9;;;17.3;;
73421;SDS011;61637;47.760;-122.022;2023-03-01T02:50:01;18.7;;;17.1;;
73421;SDS011;61637;47.760;-122.022;2023-03-01T02:52:11;17.8;;;16.3;;
73421;SDS011;61637;47.760;-122.022;2023-03-01T02:54:08;19.0;;;17.4;;
73421;SDS011;61637;47.760;-122.022;2023-03-01T02:56:01;20.0;;;18.3;;
73421;SDS011;61637;47.760;-122.022;2023-03-01T02:58:03;19.8;;;18.1;;
73421;SDS011;61637;47.760;-122.022;2023-03-01T03:00:06;19.2;;;17.6;;
73421;SDS011;61637;47.760;-122.022;2023-03-01T03:02:01;18.6;;;17.0;;
73421;SDS011;61637;47.760;-122.022;2023-03-01T03:04:02;19.1;;;17.4;;
73421;SDS011;61637;47.760;-122.022;2023-03-01T03:06:01;19.5;;;17.9;;
73421;SDS011;61637;47.760;-122.022;2023-03-01T03:08:02;18.8;;;17.2;;
73421;SDS011;61637;47.760;-122.022;2023-03-01T03:10:02;18.6;;;17.0;;
73421;SDS011;61637;47.760;-122.022;2023-03-01T03:12:01;19.0;;;17.4;;
73421;SDS011;61637;47.760;-122.022;2023-03-01T03:14:01;18.2;;;16.6;;
73421;SDS011;61637;47.760;-122.022;2023-03-01T03:16:02;18.4;;;16.8;;
73421;SDS011;61637;47.760;-122.022;2023-03-01T03:18:03;18.6;;;17.0;;
73421;SDS011;61637;47.760;-122.022;2023-03-01T03:20:01;19.6;;;17.9;;
73421;SDS011;61637;47.760;-122.022;2023-03-01T03:22:01;19.4;;;17.7;;
73421;SDS011;61637;47.760;-122.022;2023-03-01T03:24:01;19.3;;;17.6;;
73421;SDS011;61637;47.760;-122.022;2023-03-01T03:26:02;18.9;;;17.2;;
73421;SDS011;61637;47.760;-122.022;2023-03-01T03:28:01;21.4;;;19.3;;
73421;SDS011;61637;47.760;-122.022;2023-03-01T03:30:01;18.8;;;17.2;;
73421;SDS011;61637;47.760;-122.022;2023-03-01T03:32:01;20.7;;;19.0;;
73421;SDS011;61637;47.760;-122.022;2023-03-01T03:34:01;19.0;;;17.3;;
73421;SDS011;61637;47.760;-122.022;2023-03-01T03:36:02;20.5;;;18.7;;
73421;SDS011;61637;47.760;-122.022;2023-03-01T03:38:05;20.6;;;18.8;;
73421;SDS011;61637;47.760;-122.022;2023-03-01T03:40:01;21.0;;;19.1;;
73421;SDS011;61637;47.760;-122.022;2023-03-01T03:42:01;18.7;;;17.1;;
73421;SDS011;61637;47.760;-122.022;2023-03-01T03:44:01;19.1;;;17.4;;
73421;SDS011;61637;47.760;-122.022;2023-03-01T03:46:02;23.0;;;20.9;;
73421;SDS011;61637;47.760;-122.022;2023-03-01T03:48:04;21.6;;;19.6;;
73421;SDS011;61637;47.760;-122.022;2023-03-01T03:50:01;23.2;;;20.9;;
73421;SDS011;61637;47.760;-122.022;2023-03-01T03:52:01;25.2;;;22.8;;
73421;SDS011;61637;47.760;-122.022;2023-03-01T03:54:01;23.5;;;21.2;;
73421;SDS011;61637;47.760;-122.022;2023-03-01T03:56:01;23.0;;;20.9;;
73421;SDS011;61637;47.760;-122.022;2023-03-01T03:58:03;25.3;;;22.7;;
73421;SDS011;61637;47.760;-122.022;2023-03-01T04:00:02;26.1;;;23.5;;
73421;SDS011;61637;47.760;-122.022;2023-03-01T04:02:01;26.0;;;23.4;;
73421;SDS011;61637;47.760;-122.022;2023-03-01T04:04:01;23.8;;;21.6;;
73421;SDS011;61637;47.760;-122.022;2023-03-01T04:06:02;24.9;;;22.6;;
73421;SDS011;61637;47.760;-122.022;2023-03-01T04:08:02;26.1;;;23.6;;
73421;SDS011;61637;47.760;-122.022;2023-03-01T04:10:01;26.9;;;24.3;;
73421;SDS011;61637;47.760;-122.022;2023-03-01T04:12:01;28.5;;;25.8;;
73421;SDS011;61637;47.760;-122.022;2023-03-01T04:14:01;25.4;;;22.9;;
73421;SDS011;61637;47.760;-122.022;2023-03-01T04:16:01;26.1;;;23.6;;
73421;SDS011;61637;47.760;-122.022;2023-03-01T04:18:02;26.1;;;23.5;;
73421;SDS011;61637;47.760;-122.022;2023-03-01T04:20:01;25.6;;;23.1;;
73421;SDS011;61637;47.760;-122.022;2023-03-01T04:22:01;25.6;;;23.1;;
73421;SDS011;61637;47.760;-122.022;2023-03-01T04:24:01;30.4;;;27.0;;
73421;SDS011;61637;47.760;-122.022;2023-03-01T04:26:01;27.4;;;24.6;;
73421;SDS011;61637;47.760;-122.022;2023-03-01T04:28:01;27.6;;;24.9;;
73421;SDS011;61637;47.760;-122.022;2023-03-01T04:30:02;28.7;;;25.7;;
73421;SDS011;61637;47.760;-122.022;2023-03-01T04:32:01;27.8;;;24.9;;
73421;SDS011;61637;47.760;-122.022;2023-03-01T04:34:01;26.9;;;24.0;;
73421;SDS011;61637;47.760;-122.022;2023-03-01T04:36:01;28.2;;;24.9;;
73421;SDS011;61637;47.760;-122.022;2023-03-01T04:38:01;27.6;;;24.6;;
73421;SDS011;61637;47.760;-122.022;2023-03-01T04:40:02;28.1;;;25.2;;
73421;SDS011;61637;47.760;-122.022;2023-03-01T04:42:01;30.2;;;25.9;;
73421;SDS011;61637;47.760;-122.022;2023-03-01T04:44:01;32.3;;;27.5;;
73421;SDS011;61637;47.760;-122.022;2023-03-01T04:46:01;32.0;;;28.6;;
73421;SDS011;61637;47.760;-122.022;2023-03-01T04:48:02;28.3;;;25.2;;
73421;SDS011;61637;47.760;-122.022;2023-03-01T04:50:01;37.8;;;29.6;;
73421;SDS011;61637;47.760;-122.022;2023-03-01T04:52:02;28.9;;;25.9;;
73421;SDS011;61637;47.760;-122.022;2023-03-01T04:54:01;28.8;;;26.0;;
73421;SDS011;61637;47.760;-122.022;2023-03-01T04:56:02;30.3;;;27.2;;
73421;SDS011;61637;47.760;-122.022;2023-03-01T04:58:01;35.9;;;29.2;;
73421;SDS011;61637;47.760;-122.022;2023-03-01T05:00:01;32.7;;;28.2;;
73421;SDS011;61637;47.760;-122.022;2023-03-01T05:02:01;29.8;;;26.6;;
73421;SDS011;61637;47.760;-122.022;2023-03-01T05:04:01;29.8;;;26.7;;
73421;SDS011;61637;47.760;-122.022;2023-03-01T05:06:01;29.5;;;26.4;;
73421;SDS011;61637;47.760;-122.022;2023-03-01T05:08:03;30.4;;;27.3;;
73421;SDS011;61637;47.760;-122.022;2023-03-01T05:10:01;29.9;;;26.8;;
73421;SDS011;61637;47.760;-122.022;2023-03-01T05:12:01;30.8;;;27.8;;
73421;SDS011;61637;47.760;-122.022;2023-03-01T05:14:01;30.0;;;26.9;;
73421;SDS011;61637;47.760;-122.022;2023-03-01T05:16:03;29.2;;;26.2;;
73421;SDS011;61637;47.760;-122.022;2023-03-01T05:18:01;28.8;;;25.9;;
73421;SDS011;61637;47.760;-122.022;2023-03-01T05:20:01;29.4;;;26.4;;
73421;SDS011;61637;47.760;-122.022;2023-03-01T05:22:01;30.8;;;27.5;;
73421;SDS011;61637;47.760;-122.022;2023-03-01T05:24:01;29.0;;;26.1;;
73421;SDS011;61637;47.760;-122.022;2023-03-01T05:26:03;29.5;;;26.3;;
73421;SDS011;61637;47.760;-122.022;2023-03-01T05:28:02;29.2;;;26.3;;
73421;SDS011;61637;47.760;-122.022;2023-03-01T05:30:02;31.6;;;27.6;;
73421;SDS011;61637;47.760;-122.022;2023-03-01T05:32:02;27.1;;;24.5;;
73421;SDS011;61637;47.760;-122.022;2023-03-01T05:34:01;31.5;;;28.1;;
73421;SDS011;61637;47.760;-122.022;2023-03-01T05:36:01;33.0;;;28.6;;
73421;SDS011;61637;47.760;-122.022;2023-03-01T05:38:01;32.9;;;28.1;;
73421;SDS011;61637;47.760;-122.022;2023-03-01T05:40:02;30.3;;;27.2;;
73421;SDS011;61637;47.760;-122.022;2023-03-01T05:42:02;30.8;;;27.6;;
73421;SDS011;61637;47.760;-122.022;2023-03-01T05:44:01;29.2;;;26.1;;
73421;SDS011;61637;47.760;-122.022;2023-03-01T05:46:01;31.9;;;27.3;;
73421;SDS011;61637;47.760;-122.022;2023-03-01T05:48:01;30.0;;;26.9;;
73421;SDS011;61637;47.760;-122.022;2023-03-01T05:50:01;32.5;;;27.0;;
73421;SDS011;61637;47.760;-122.022;2023-03-01T05:52:01;30.5;;;27.2;;
73421;SDS011;61637;47.760;-122.022;2023-03-01T05:54:01;42.4;;;31.0;;
73421;SDS011;61637;47.760;-122.022;2023-03-01T05:56:02;56.2;;;30.9;;
73421;SDS011;61637;47.760;-122.022;2023-03-01T05:58:02;41.7;;;28.8;;
73421;SDS011;61637;47.760;-122.022;2023-03-01T06:00:01;46.6;;;31.2;;
73421;SDS011;61637;47.760;-122.022;2023-03-01T06:02:01;35.1;;;27.9;;
73421;SDS011;61637;47.760;-122.022;2023-03-01T06:04:02;103.4;;;28.8;;
73421;SDS011;61637;47.760;-122.022;2023-03-01T06:06:01;42.0;;;27.7;;
73421;SDS011;61637;47.760;-122.022;2023-03-01T06:08:02;30.7;;;26.6;;
73421;SDS011;61637;47.760;-122.022;2023-03-01T06:10:02;39.9;;;26.9;;
73421;SDS011;61637;47.760;-122.022;2023-03-01T06:12:01;35.7;;;27.2;;
73421;SDS011;61637;47.760;-122.022;2023-03-01T06:14:01;32.7;;;28.3;;
73421;SDS011;61637;47.760;-122.022;2023-03-01T06:16:04;26.9;;;24.0;;
73421;SDS011;61637;47.760;-122.022;2023-03-01T06:18:01;31.5;;;26.7;;
73421;SDS011;61637;47.760;-122.022;2023-03-01T06:20:01;35.3;;;26.8;;
73421;SDS011;61637;47.760;-122.022;2023-03-01T06:22:01;33.6;;;26.4;;
73421;SDS011;61637;47.760;-122.022;2023-03-01T06:24:01;39.3;;;26.5;;
73421;SDS011;61637;47.760;-122.022;2023-03-01T06:26:06;33.8;;;26.2;;
73421;SDS011;61637;47.760;-122.022;2023-03-01T06:28:01;41.2;;;27.7;;
73421;SDS011;61637;47.760;-122.022;2023-03-01T06:30:01;32.0;;;25.8;;
73421;SDS011;61637;47.760;-122.022;2023-03-01T06:32:02;33.2;;;26.1;;
73421;SDS011;61637;47.760;-122.022;2023-03-01T06:34:01;33.4;;;24.6;;
73421;SDS011;61637;47.760;-122.022;2023-03-01T06:36:01;39.2;;;28.0;;
73421;SDS011;61637;47.760;-122.022;2023-03-01T06:38:03;29.5;;;25.3;;
73421;SDS011;61637;47.760;-122.022;2023-03-01T06:40:01;33.4;;;25.9;;
73421;SDS011;61637;47.760;-122.022;2023-03-01T06:42:01;37.9;;;27.3;;
73421;SDS011;61637;47.760;-122.022;2023-03-01T06:44:01;67.3;;;28.2;;
73421;SDS011;61637;47.760;-122.022;2023-03-01T06:46:03;37.0;;;23.1;;
73421;SDS011;61637;47.760;-122.022;2023-03-01T06:48:04;31.7;;;23.5;;
73421;SDS011;61637;47.760;-122.022;2023-03-01T06:50:02;35.7;;;24.0;;
73421;SDS011;61637;47.760;-122.022;2023-03-01T06:52:01;71.7;;;24.7;;
73421;SDS011;61637;47.760;-122.022;2023-03-01T06:54:01;239.0;;;31.6;;
73421;SDS011;61637;47.760;-122.022;2023-03-01T06:56:01;44.5;;;24.6;;
73421;SDS011;61637;47.760;-122.022;2023-03-01T06:58:02;101.5;;;27.2;;
73421;SDS011;61637;47.760;-122.022;2023-03-01T07:00:01;97.8;;;24.9;;
73421;SDS011;61637;47.760;-122.022;2023-03-01T07:02:01;112.3;;;27.0;;
73421;SDS011;61637;47.760;-122.022;2023-03-01T07:04:01;64.0;;;26.3;;
73421;SDS011;61637;47.760;-122.022;2023-03-01T07:06:01;84.3;;;23.6;;
73421;SDS011;61637;47.760;-122.022;2023-03-01T07:08:01;133.8;;;26.6;;
73421;SDS011;61637;47.760;-122.022;2023-03-01T07:10:01;99.4;;;26.9;;
73421;SDS011;61637;47.760;-122.022;2023-03-01T07:12:02;54.2;;;24.7;;
73421;SDS011;61637;47.760;-122.022;2023-03-01T07:14:01;39.5;;;24.9;;
73421;SDS011;61637;47.760;-122.022;2023-03-01T07:16:01;43.5;;;23.9;;
73421;SDS011;61637;47.760;-122.022;2023-03-01T07:18:02;43.6;;;24.8;;
73421;SDS011;61637;47.760;-122.022;2023-03-01T07:20:01;49.3;;;24.5;;
73421;SDS011;61637;47.760;-122.022;2023-03-01T07:22:01;70.3;;;26.2;;
73421;SDS011;61637;47.760;-122.022;2023-03-01T07:24:01;59.0;;;25.5;;
73421;SDS011;61637;47.760;-122.022;2023-03-01T07:26:01;40.4;;;23.1;;
73421;SDS011;61637;47.760;-122.022;2023-03-01T07:28:02;46.1;;;24.1;;
73421;SDS011;61637;47.760;-122.022;2023-03-01T07:30:02;47.1;;;24.6;;
73421;SDS011;61637;47.760;-122.022;2023-03-01T07:32:01;81.9;;;24.8;;
73421;SDS011;61637;47.760;-122.022;2023-03-01T07:34:01;117.2;;;25.6;;
73421;SDS011;61637;47.760;-122.022;2023-03-01T07:36:04;110.8;;;25.1;;
73421;SDS011;61637;47.760;-122.022;2023-03-01T07:38:01;49.8;;;23.4;;
73421;SDS011;61637;47.760;-122.022;2023-03-01T07:40:02;59.4;;;24.1;;
73421;SDS011;61637;47.760;-122.022;2023-03-01T07:42:01;33.7;;;23.9;;
73421;SDS011;61637;47.760;-122.022;2023-03-01T07:44:01;168.1;;;25.5;;
73421;SDS011;61637;47.760;-122.022;2023-03-01T07:46:02;250.8;;;30.2;;
73421;SDS011;61637;47.760;-122.022;2023-03-01T07:48:01;87.1;;;24.4;;
73421;SDS011;61637;47.760;-122.022;2023-03-01T07:50:02;125.9;;;26.4;;
73421;SDS011;61637;47.760;-122.022;2023-03-01T07:52:01;41.5;;;24.1;;
73421;SDS011;61637;47.760;-122.022;2023-03-01T07:54:01;50.3;;;22.8;;
73421;SDS011;61637;47.760;-122.022;2023-03-01T07:56:02;37.4;;;25.1;;
73421;SDS011;61637;47.760;-122.022;2023-03-01T07:58:01;32.9;;;24.8;;
73421;SDS011;61637;47.760;-122.022;2023-03-01T08:00:01;73.7;;;25.3;;
73421;SDS011;61637;47.760;-122.022;2023-03-01T08:02:01;65.6;;;26.7;;
73421;SDS011;61637;47.760;-122.022;2023-03-01T08:04:01;45.1;;;24.9;;
73421;SDS011;61637;47.760;-122.022;2023-03-01T08:06:02;38.1;;;27.0;;
73421;SDS011;61637;47.760;-122.022;2023-03-01T08:08:01;29.0;;;24.0;;
73421;SDS011;61637;47.760;-122.022;2023-03-01T08:10:01;36.0;;;25.9;;
73421;SDS011;61637;47.760;-122.022;2023-03-01T08:12:01;39.4;;;25.2;;
73421;SDS011;61637;47.760;-122.022;2023-03-01T08:14:01;33.7;;;25.8;;
73421;SDS011;61637;47.760;-122.022;2023-03-01T08:16:03;27.7;;;23.5;;
73421;SDS011;61637;47.760;-122.022;2023-03-01T08:18:01;32.5;;;24.0;;
73421;SDS011;61637;47.760;-122.022;2023-03-01T08:20:01;30.5;;;24.0;;
73421;SDS011;61637;47.760;-122.022;2023-03-01T08:22:02;33.1;;;25.8;;
73421;SDS011;61637;47.760;-122.022;2023-03-01T08:24:01;37.3;;;25.4;;
73421;SDS011;61637;47.760;-122.022;2023-03-01T08:26:07;27.1;;;23.0;;
73421;SDS011;61637;47.760;-122.022;2023-03-01T08:28:02;35.3;;;24.2;;
73421;SDS011;61637;47.760;-122.022;2023-03-01T08:30:01;45.3;;;27.1;;
73421;SDS011;61637;47.760;-122.022;2023-03-01T08:32:01;42.7;;;24.7;;
73421;SDS011;61637;47.760;-122.022;2023-03-01T08:34:03;37.0;;;24.1;;
73421;SDS011;61637;47.760;-122.022;2023-03-01T08:36:03;38.6;;;25.7;;
73421;SDS011;61637;47.760;-122.022;2023-03-01T08:38:01;38.6;;;25.7;;
73421;SDS011;61637;47.760;-122.022;2023-03-01T08:40:01;41.3;;;26.6;;
73421;SDS011;61637;47.760;-122.022;2023-03-01T08:42:01;28.2;;;22.9;;
73421;SDS011;61637;47.760;-122.022;2023-03-01T08:44:01;43.7;;;24.3;;
73421;SDS011;61637;47.760;-122.022;2023-03-01T08:46:01;55.1;;;24.3;;
73421;SDS011;61637;47.760;-122.022;2023-03-01T08:48:01;42.2;;;24.6;;
73421;SDS011;61637;47.760;-122.022;2023-03-01T08:50:02;31.2;;;22.4;;
73421;SDS011;61637;47.760;-122.022;2023-03-01T08:52:02;52.2;;;24.4;;
73421;SDS011;61637;47.760;-122.022;2023-03-01T08:54:01;33.6;;;23.7;;
73421;SDS011;61637;47.760;-122.022;2023-03-01T08:56:01;58.2;;;24.9;;
73421;SDS011;61637;47.760;-122.022;2023-03-01T08:58:01;58.4;;;26.5;;
73421;SDS011;61637;47.760;-122.022;2023-03-01T09:00:01;40.2;;;24.2;;
73421;SDS011;61637;47.760;-122.022;2023-03-01T09:02:01;87.8;;;25.6;;
73421;SDS011;61637;47.760;-122.022;2023-03-01T09:04:01;43.4;;;24.2;;
73421;SDS011;61637;47.760;-122.022;2023-03-01T09:06:02;42.7;;;23.8;;
73421;SDS011;61637;47.760;-122.022;2023-03-01T09:08:01;40.3;;;23.4;;
73421;SDS011;61637;47.760;-122.022;2023-03-01T09:10:01;498.7;;;31.3;;
73421;SDS011;61637;47.760;-122.022;2023-03-01T09:12:02;38.2;;;22.1;;
73421;SDS011;61637;47.760;-122.022;2023-03-01T09:14:04;29.0;;;23.4;;
73421;SDS011;61637;47.760;-122.022;2023-03-01T09:16:04;63.8;;;23.6;;
73421;SDS011;61637;47.760;-122.022;2023-03-01T09:18:01;384.0;;;30.7;;
73421;SDS011;61637;47.760;-122.022;2023-03-01T09:20:01;149.8;;;26.8;;
73421;SDS011;61637;47.760;-122.022;2023-03-01T09:22:03;34.9;;;23.7;;
73421;SDS011;61637;47.760;-122.022;2023-03-01T09:24:01;238.6;;;30.4;;
73421;SDS011;61637;47.760;-122.022;2023-03-01T09:26:01;538.8;;;39.5;;
73421;SDS011;61637;47.760;-122.022;2023-03-01T09:28:01;69.3;;;24.3;;
73421;SDS011;61637;47.760;-122.022;2023-03-01T09:30:01;181.9;;;24.7;;
73421;SDS011;61637;47.760;-122.022;2023-03-01T09:32:01;509.3;;;35.4;;
73421;SDS011;61637;47.760;-122.022;2023-03-01T09:34:01;450.3;;;33.0;;
73421;SDS011;61637;47.760;-122.022;2023-03-01T09:36:03;180.1;;;27.4;;
73421;SDS011;61637;47.760;-122.022;2023-03-01T09:38:01;210.7;;;26.1;;
73421;SDS011;61637;47.760;-122.022;2023-03-01T09:40:02;199.6;;;26.2;;
73421;SDS011;61637;47.760;-122.022;2023-03-01T09:42:03;203.9;;;27.3;;
73421;SDS011;61637;47.760;-122.022;2023-03-01T09:44:06;152.0;;;24.5;;
73421;SDS011;61637;47.760;-122.022;2023-03-01T09:46:05;210.8;;;27.0;;
73421;SDS011;61637;47.760;-122.022;2023-03-01T09:48:01;107.3;;;21.7;;
73421;SDS011;61637;47.760;-122.022;2023-03-01T09:50:06;161.9;;;23.7;;
73421;SDS011;61637;47.760;-122.022;2023-03-01T09:52:06;35.4;;;21.0;;
73421;SDS011;61637;47.760;-122.022;2023-03-01T09:54:01;28.2;;;21.5;;
73421;SDS011;61637;47.760;-122.022;2023-03-01T09:56:09;247.6;;;25.1;;
73421;SDS011;61637;47.760;-122.022;2023-03-01T09:58:14;322.3;;;25.6;;
73421;SDS011;61637;47.760;-122.022;2023-03-01T10:00:13;33.8;;;21.8;;
73421;SDS011;61637;47.760;-122.022;2023-03-01T10:02:14;130.8;;;22.8;;
73421;SDS011;61637;47.760;-122.022;2023-03-01T10:04:11;158.7;;;22.1;;
73421;SDS011;61637;47.760;-122.022;2023-03-01T10:06:04;90.5;;;19.8;;
73421;SDS011;61637;47.760;-122.022;2023-03-01T10:10:02;103.6;;;20.8;;
73421;SDS011;61637;47.760;-122.022;2023-03-01T10:12:04;142.8;;;22.6;;
73421;SDS011;61637;47.760;-122.022;2023-03-01T10:14:07;107.5;;;22.3;;
73421;SDS011;61637;47.760;-122.022;2023-03-01T10:16:06;38.3;;;20.1;;
73421;SDS011;61637;47.760;-122.022;2023-03-01T10:18:04;68.6;;;19.8;;
73421;SDS011;61637;47.760;-122.022;2023-03-01T10:20:15;134.3;;;21.5;;
73421;SDS011;61637;47.760;-122.022;2023-03-01T10:22:11;200.3;;;23.1;;
73421;SDS011;61637;47.760;-122.022;2023-03-01T10:24:10;65.3;;;21.4;;
73421;SDS011;61637;47.760;-122.022;2023-03-01T10:26:12;174.0;;;22.9;;
73421;SDS011;61637;47.760;-122.022;2023-03-01T10:28:05;265.0;;;25.2;;
73421;SDS011;61637;47.760;-122.022;2023-03-01T10:30:09;212.4;;;23.7;;
73421;SDS011;61637;47.760;-122.022;2023-03-01T10:32:04;396.8;;;27.9;;
73421;SDS011;61637;47.760;-122.022;2023-03-01T10:34:01;291.2;;;23.8;;
73421;SDS011;61637;47.760;-122.022;2023-03-01T10:36:01;118.5;;;20.7;;
73421;SDS011;61637;47.760;-122.022;2023-03-01T10:38:06;33.1;;;20.2;;
73421;SDS011;61637;47.760;-122.022;2023-03-01T10:40:03;350.3;;;26.3;;
73421;SDS011;61637;47.760;-122.022;2023-03-01T10:42:03;306.9;;;27.4;;
73421;SDS011;61637;47.760;-122.022;2023-03-01T10:44:01;116.8;;;20.2;;
73421;SDS011;61637;47.760;-122.022;2023-03-01T10:46:01;227.5;;;21.7;;
73421;SDS011;61637;47.760;-122.022;2023-03-01T10:48:12;98.3;;;19.1;;
73421;SDS011;61637;47.760;-122.022;2023-03-01T10:50:03;615.6;;;33.3;;
73421;SDS011;61637;47.760;-122.022;2023-03-01T10:52:16;288.0;;;23.3;;
73421;SDS011;61637;47.760;-122.022;2023-03-01T10:54:02;551.5;;;33.1;;
73421;SDS011;61637;47.760;-122.022;2023-03-01T10:56:05;357.7;;;27.5;;
73421;SDS011;61637;47.760;-122.022;2023-03-01T10:58:17;219.9;;;22.8;;
73421;SDS011;61637;47.760;-122.022;2023-03-01T11:00:20;54.6;;;18.8;;
73421;SDS011;61637;47.760;-122.022;2023-03-01T11:02:15;238.7;;;24.5;;
73421;SDS011;61637;47.760;-122.022;2023-03-01T11:04:11;243.6;;;21.3;;
73421;SDS011;61637;47.760;-122.022;2023-03-01T11:06:05;58.8;;;18.4;;
73421;SDS011;61637;47.760;-122.022;2023-03-01T11:08:02;157.2;;;21.2;;
73421;SDS011;61637;47.760;-122.022;2023-03-01T11:10:11;59.2;;;17.1;;
73421;SDS011;61637;47.760;-122.022;2023-03-01T11:12:01;121.7;;;19.5;;
73421;SDS011;61637;47.760;-122.022;2023-03-01T11:14:06;136.9;;;19.8;;
73421;SDS011;61637;47.760;-122.022;2023-03-01T11:16:03;149.8;;;19.7;;
73421;SDS011;61637;47.760;-122.022;2023-03-01T11:18:01;36.3;;;18.1;;
73421;SDS011;61637;47.760;-122.022;2023-03-01T11:20:02;25.7;;;16.5;;
73421;SDS011;61637;47.760;-122.022;2023-03-01T11:22:03;33.4;;;16.2;;
73421;SDS011;61637;47.760;-122.022;2023-03-01T11:24:03;19.9;;;17.9;;
73421;SDS011;61637;47.760;-122.022;2023-03-01T11:26:04;32.9;;;16.6;;
73421;SDS011;61637;47.760;-122.022;2023-03-01T11:28:04;28.1;;;17.9;;
73421;SDS011;61637;47.760;-122.022;2023-03-01T11:30:04;84.4;;;18.7;;